Jersey City, NJ (07308)

6:26 AM EST on January 30, 2015 (GMT -0500)
Central Park | Change Station
CLOSE
Current Station
Airport
Location: Central Park,
Elevation: 154 ft
Nearby Weather Stations
Active Advisory: Wind Advisory

Elev 154 ft 40.78 °N, 73.97 °W | Updated 35 minutes ago

Overcast
Overcast
35 °F
Feels Like 32 °F
N
4
Wind Variable Wind from West

Today
High -- | Low -- °F
--% Chance of Precip.
Yesterday
High -- | Low -- °F
Precip. -- in
7:08 AM 5:11 PM
Waxing Gibbous, 82% visible
Pressure 29.84 in
Visibility 9.0 miles
Clouds Mostly Cloudy 3000 ft
Overcast 5000 ft
Windchill 32 °F
Dew Point 27 °F
Humidity 72%
Rainfall 0.06 in
Snow Depth Not available.
UV 0 out of 12
Pollen .10 out of 12
Air Quality Not available.
Flu Activity Not available.
METAR KNYC 301051Z AUTO 28003KT 9SM BKN030 OVC050 02/M03 A2986 RMK AO2 SNB21E37 SLP105 P0000 T00171028

More Conditions Fewer Conditions

Pressure 29.84 in
Visibility 9.0 miles
Clouds Mostly Cloudy 3000 ft
Overcast 5000 ft
Windchill 32 °F
Dew Point 27 °F
Humidity 72%
Rainfall 0.06 in
Snow Depth Not available.
UV 0 out of 12
Pollen .10 out of 12
Air Quality Not available.
Flu Activity Not available.
METAR KNYC 301051Z AUTO 28003KT 9SM BKN030 OVC050 02/M03 A2986 RMK AO2 SNB21E37 SLP105 P0000 T00171028

More Conditions Fewer Conditions

10-Day Weather Forecast

Almanac

Astronomy

Jan. 30, 2015 Rise Set
Actual Time
Civil Twilight
Nautical Twilight
Astronomical Twilight
Moon
Length of Visible Light
Length of Day
Tomorrow will be .
, % of the Moon is Illuminated

Today's Extremes

State Highs State Lows

Community

WunderPhotos

Upload Photos

1,791,737 photos uploaded!

WunderBlogs® & News

Nearby

Air Quality

  Air Quality AQ Index Pollutant
Not available.

Snow Depth

Station Depth Elevation

Earthquake Activity

City Distance Mag. Time & Date
Minimum magnitude displayed is 2.5.

Coastal Water Temperatures

Place Temperature

Nearby Weather Stations